Aérodrome :
LOGIN :

S'inscrire | Disclaimer

   EN    FR    IT 

 










Légende :    VFR   VFR Marginal   IFR   IFR Intensif   IFR Très Intensif
Visi : 
Plafond : 
>= 8 km
>= 3000ft
5 à 8 km
1000 à 3000 ft
1500m à 5 km
500 à 1000 ft
800 à 1500m
200 à 500 ft
< 800m
< 200 ft
Symboles :   Orages  Brouillard  Fortes neiges  Fortes précipitations  Vent > 20 kt
SIGMETs :   Divers  Orages  Givrage  Turbulence  Onde Orograph.  Cendres Volcan.







- Altitude de l'aérodrome : 357 ft
- Code IATA : TUF
- Voir les cartes d'approche


LFOT - Tours

DERNIER METAR :
  • 132000Z AUTO 06011KT CAVOK 01/M01 Q1013 NOSIG

METARs EXPIRÉS :
  • 131930Z AUTO 06010KT CAVOK 01/M01 Q1012 NOSIG
  • 131900Z AUTO 05009KT CAVOK 01/M01 Q1012 NOSIG
  • 131830Z AUTO 06008KT CAVOK 01/M01 Q1012 NOSIG
  • 131800Z AUTO 06009KT CAVOK 01/M01 Q1012 NOSIG
  • 131730Z AUTO 06007KT CAVOK 01/M01 Q1012 NOSIG

TAF TAF LFOT
Valide du 13 à 18h jusqu'au 14 à 18h UTC


131700Z 1318/1418 08008KT CAVOK
PROB30
TEMPO 1404/1410 BKN008
Pas de NOTAMs connus pour ce terrain.



MET'MAP, la Météo Aéronautique d'un coup d'oeil ! - Copyright ORBIFLY Décembre 2007 - Disclaimer

ORBIFLY MET'MAP TEAM :

Programmation & Développement : Alexandra Zaïnal
Conception & Développement : Baudouin d'Aumeries
Co-Programmation & Développement : Marc-Olivier Méhu
Soutien technique & logistique : Manuel Goepfert

Contact : metmap@orbifly.com




SOURCES & CREDITS :

   NOAA